Time;durP1;ratioP1;P1;durP2;ratioP2;P2;SDS_P1;SDS_P2;PMS_P1;PMS_P2;Temp;Humidity;BMP_temperature;BMP_pressure;BME280_temperature;BME280_humidity;BME280_pressure;Samples;Min_cycle;Max_cycle;Signal;HPM_P1;HPM_P2
2022/07/15 00:02:05;;;;;;;10.23;1.45;;;;;;;;;;4933866;28;20066;-67
2022/07/15 00:04:30;;;;;;;7.45;1.52;;;;;;;;;;4932972;28;20048;-65
2022/07/15 00:06:55;;;;;;;7.80;1.55;;;;;;;;;;4933720;28;20529;-66
2022/07/15 00:10:13;;;;;;;7.93;1.38;;;;;;;;;;4947791;28;20038;-67
2022/07/15 00:12:09;;;;;;;8.98;1.42;;;;;;;;;;4933596;28;20047;-65
2022/07/15 00:14:34;;;;;;;10.52;1.55;;;;;;;;;;4933746;28;20229;-65
2022/07/15 00:16:59;;;;;;;10.35;2.10;;;;;;;;;;4932878;28;20519;-64
2022/07/15 00:19:25;;;;;;;9.25;1.80;;;;;;;;;;4947024;28;20038;-65
2022/07/15 00:21:50;;;;;;;9.30;1.80;;;;;;;;;;4937664;28;20034;-66
2022/07/15 00:24:18;;;;;;;7.68;1.55;;;;;;;;;;4931638;28;20134;-65
2022/07/15 00:26:43;;;;;;;10.55;1.35;;;;;;;;;;4932503;28;20033;-65
2022/07/15 00:29:11;;;;;;;6.88;1.20;;;;;;;;;;4947109;28;20030;-66
2022/07/15 00:31:36;;;;;;;7.85;1.35;;;;;;;;;;4937134;28;20031;-65
2022/07/15 00:34:03;;;;;;;10.40;1.48;;;;;;;;;;4931403;28;20027;-65
2022/07/15 00:36:29;;;;;;;9.48;1.40;;;;;;;;;;4932908;28;20189;-65
2022/07/15 00:38:54;;;;;;;6.90;1.08;;;;;;;;;;4931230;28;20027;-65
2022/07/15 00:41:20;;;;;;;8.10;1.10;;;;;;;;;;4932596;28;20825;-65
2022/07/15 00:43:45;;;;;;;8.05;1.45;;;;;;;;;;4931781;28;20100;-64
2022/07/15 00:46:15;;;;;;;12.75;1.65;;;;;;;;;;4929083;28;20038;-66
2022/07/15 00:48:43;;;;;;;9.90;1.30;;;;;;;;;;4931245;28;20146;-65
2022/07/15 00:51:08;;;;;;;7.97;1.25;;;;;;;;;;4931786;28;20098;-65
2022/07/15 00:53:35;;;;;;;8.48;1.08;;;;;;;;;;4931277;28;21019;-65
2022/07/15 00:56:01;;;;;;;7.80;1.20;;;;;;;;;;4931816;28;20042;-65
2022/07/15 00:58:27;;;;;;;10.18;2.55;;;;;;;;;;4946963;28;20098;-65
2022/07/15 01:00:53;;;;;;;9.65;1.67;;;;;;;;;;4931775;28;20145;-65
2022/07/15 01:03:21;;;;;;;7.97;1.05;;;;;;;;;;4932187;28;20144;-65
2022/07/15 01:05:47;;;;;;;6.43;1.27;;;;;;;;;;4929108;28;20042;-65
2022/07/15 01:08:17;;;;;;;8.55;1.23;;;;;;;;;;4931551;28;20857;-65
2022/07/15 01:10:43;;;;;;;6.57;0.90;;;;;;;;;;4932510;28;20118;-64
2022/07/15 01:13:08;;;;;;;5.85;1.23;;;;;;;;;;4946638;28;20499;-65
2022/07/15 01:15:33;;;;;;;5.90;1.20;;;;;;;;;;4895239;28;1057900;-64
2022/07/15 01:18:03;;;;;;;9.63;1.02;;;;;;;;;;4946467;28;20035;-65
2022/07/15 01:20:29;;;;;;;8.85;1.40;;;;;;;;;;4932470;28;20415;-65
2022/07/15 01:22:54;;;;;;;8.07;1.17;;;;;;;;;;4932715;28;20078;-65
2022/07/15 01:25:19;;;;;;;5.95;0.90;;;;;;;;;;4935784;28;20043;-64
2022/07/15 01:27:44;;;;;;;9.57;1.50;;;;;;;;;;4932707;28;20031;-65
2022/07/15 01:30:11;;;;;;;7.70;1.30;;;;;;;;;;4937599;28;20034;-65
2022/07/15 01:32:36;;;;;;;9.68;1.13;;;;;;;;;;4932795;28;20105;-65
2022/07/15 01:35:02;;;;;;;9.25;1.00;;;;;;;;;;4932448;28;20126;-65
2022/07/15 01:37:27;;;;;;;8.20;1.30;;;;;;;;;;4929587;28;20048;-65
2022/07/15 01:39:53;;;;;;;7.78;1.45;;;;;;;;;;4932319;28;20031;-65
2022/07/15 01:42:18;;;;;;;6.53;1.13;;;;;;;;;;4947156;28;20126;-65
2022/07/15 01:44:44;;;;;;;8.52;1.40;;;;;;;;;;4937576;28;20050;-65
2022/07/15 01:47:12;;;;;;;7.32;1.00;;;;;;;;;;4933150;28;22571;-67
2022/07/15 01:49:38;;;;;;;9.52;1.23;;;;;;;;;;4945856;28;22535;-64
2022/07/15 01:52:03;;;;;;;5.25;1.00;;;;;;;;;;4932664;28;20038;-65
2022/07/15 01:54:33;;;;;;;7.85;1.10;;;;;;;;;;4932180;28;20051;-65
2022/07/15 01:56:58;;;;;;;10.95;0.90;;;;;;;;;;4936915;28;20031;-65
2022/07/15 01:59:24;;;;;;;7.22;1.30;;;;;;;;;;4933110;28;20779;-67
2022/07/15 02:01:52;;;;;;;7.90;1.00;;;;;;;;;;4936240;28;20062;-65
2022/07/15 02:04:19;;;;;;;11.23;1.55;;;;;;;;;;4936669;28;23755;-65
2022/07/15 02:06:45;;;;;;;9.13;1.50;;;;;;;;;;4940363;28;20125;-65
2022/07/15 02:09:11;;;;;;;9.13;1.50;;;;;;;;;;4935875;28;21217;-64
2022/07/15 02:11:38;;;;;;;7.15;1.30;;;;;;;;;;4936412;28;20142;-64
2022/07/15 02:14:04;;;;;;;11.63;1.50;;;;;;;;;;4936048;28;20042;-65
2022/07/15 02:16:30;;;;;;;7.57;1.10;;;;;;;;;;4936758;28;20073;-65
2022/07/15 02:18:55;;;;;;;8.85;1.27;;;;;;;;;;4935354;28;20046;-63
2022/07/15 02:21:21;;;;;;;9.80;1.25;;;;;;;;;;4936300;28;20034;-64
2022/07/15 02:23:46;;;;;;;9.98;1.00;;;;;;;;;;4950257;28;20102;-65
2022/07/15 02:26:11;;;;;;;6.25;1.23;;;;;;;;;;4935397;28;20153;-64
2022/07/15 02:28:37;;;;;;;13.75;1.55;;;;;;;;;;4935978;28;20039;-65
2022/07/15 02:31:02;;;;;;;8.50;1.10;;;;;;;;;;4936408;28;20251;-65
2022/07/15 02:33:28;;;;;;;8.27;1.20;;;;;;;;;;4936071;28;20045;-64
2022/07/15 02:35:53;;;;;;;12.07;1.20;;;;;;;;;;4935656;28;20146;-64
2022/07/15 02:38:19;;;;;;;6.28;1.30;;;;;;;;;;4950245;28;20109;-65
2022/07/15 02:40:48;;;;;;;7.20;1.17;;;;;;;;;;4935259;28;20033;-65
2022/07/15 02:43:13;;;;;;;9.52;1.25;;;;;;;;;;4935491;28;20793;-65
2022/07/15 02:45:38;;;;;;;10.38;1.30;;;;;;;;;;4935466;28;20077;-65
2022/07/15 02:48:04;;;;;;;9.27;1.17;;;;;;;;;;4935721;28;20042;-65
2022/07/15 02:50:32;;;;;;;11.88;1.58;;;;;;;;;;4935609;28;20042;-65
2022/07/15 02:52:59;;;;;;;12.27;1.50;;;;;;;;;;4935837;28;20141;-65
2022/07/15 02:55:25;;;;;;;8.63;1.52;;;;;;;;;;4935369;28;20053;-66
2022/07/15 02:57:50;;;;;;;7.65;1.35;;;;;;;;;;4934873;28;20034;-65
2022/07/15 03:00:19;;;;;;;15.10;1.83;;;;;;;;;;4940783;28;20153;-65
2022/07/15 03:02:48;;;;;;;13.35;1.40;;;;;;;;;;4949323;28;20066;-64
2022/07/15 03:05:13;;;;;;;13.32;1.58;;;;;;;;;;4935201;28;20057;-65
2022/07/15 03:07:39;;;;;;;8.95;1.33;;;;;;;;;;4934656;28;20038;-65
2022/07/15 03:10:05;;;;;;;16.30;2.15;;;;;;;;;;4935097;28;20042;-65
2022/07/15 03:12:32;;;;;;;10.15;1.30;;;;;;;;;;4934676;28;20827;-65
2022/07/15 03:14:57;;;;;;;9.63;1.42;;;;;;;;;;4935523;28;20178;-65
2022/07/15 03:17:23;;;;;;;12.70;1.98;;;;;;;;;;4934823;28;20046;-64
2022/07/15 03:19:48;;;;;;;8.55;1.50;;;;;;;;;;4949458;28;20034;-64
2022/07/15 03:22:15;;;;;;;8.00;1.70;;;;;;;;;;4934025;28;20041;-64
2022/07/15 03:24:41;;;;;;;8.13;1.58;;;;;;;;;;4935898;28;20081;-66
2022/07/15 03:27:06;;;;;;;12.57;1.75;;;;;;;;;;4934965;28;20042;-64
2022/07/15 03:29:32;;;;;;;11.30;1.70;;;;;;;;;;4942104;28;20038;-64
2022/07/15 03:31:57;;;;;;;6.13;1.33;;;;;;;;;;4949054;28;20065;-64
2022/07/15 03:34:25;;;;;;;7.25;1.52;;;;;;;;;;4934676;28;20027;-66
2022/07/15 03:36:52;;;;;;;14.48;1.83;;;;;;;;;;4934651;28;20703;-66
2022/07/15 03:39:18;;;;;;;8.38;1.50;;;;;;;;;;4934337;28;20069;-66
2022/07/15 03:41:43;;;;;;;11.10;1.63;;;;;;;;;;4935043;28;20131;-66
2022/07/15 03:44:08;;;;;;;10.45;1.52;;;;;;;;;;4934246;28;20038;-66
2022/07/15 03:46:34;;;;;;;11.68;1.83;;;;;;;;;;4950161;28;20038;-65
2022/07/15 03:49:00;;;;;;;5.63;1.33;;;;;;;;;;4947676;28;20038;-64
2022/07/15 03:51:30;;;;;;;13.55;1.50;;;;;;;;;;4934710;28;20031;-64
2022/07/15 03:53:55;;;;;;;9.32;1.48;;;;;;;;;;4933958;28;20056;-64
2022/07/15 03:56:24;;;;;;;8.57;1.30;;;;;;;;;;4934712;28;20167;-64
2022/07/15 03:58:51;;;;;;;9.25;1.83;;;;;;;;;;4934491;28;20027;-65
2022/07/15 04:01:17;;;;;;;6.82;1.52;;;;;;;;;;4948339;28;20039;-65
2022/07/15 04:03:42;;;;;;;8.43;1.30;;;;;;;;;;4933810;28;20188;-66
2022/07/15 04:06:07;;;;;;;12.05;1.40;;;;;;;;;;4930883;28;20043;-66
2022/07/15 04:08:32;;;;;;;10.75;1.13;;;;;;;;;;4934762;28;20042;-65
2022/07/15 04:10:58;;;;;;;9.30;1.75;;;;;;;;;;4934318;28;20995;-65
2022/07/15 04:13:23;;;;;;;7.10;1.30;;;;;;;;;;4934103;28;20034;-66
2022/07/15 04:15:49;;;;;;;7.15;1.10;;;;;;;;;;4934354;28;20090;-66
2022/07/15 04:18:15;;;;;;;8.88;1.35;;;;;;;;;;4934521;28;20531;-66
2022/07/15 04:20:40;;;;;;;9.05;1.27;;;;;;;;;;4938348;28;20048;-66
2022/07/15 04:23:07;;;;;;;8.82;1.20;;;;;;;;;;4933062;28;20482;-66
2022/07/15 04:25:33;;;;;;;6.85;1.10;;;;;;;;;;4934496;28;20167;-66
2022/07/15 04:27:59;;;;;;;8.85;1.30;;;;;;;;;;4933558;28;20057;-66
2022/07/15 04:30:28;;;;;;;9.18;1.10;;;;;;;;;;4939661;28;20736;-67
2022/07/15 04:32:53;;;;;;;10.27;1.23;;;;;;;;;;4933546;28;20061;-65
2022/07/15 04:35:21;;;;;;;9.32;1.20;;;;;;;;;;4934092;28;20958;-65
2022/07/15 04:37:49;;;;;;;6.60;1.33;;;;;;;;;;4934405;28;20092;-65
2022/07/15 04:40:14;;;;;;;7.63;1.15;;;;;;;;;;4935676;28;20851;-65
2022/07/15 04:42:40;;;;;;;8.15;1.10;;;;;;;;;;4933267;28;20161;-65
2022/07/15 04:45:06;;;;;;;7.15;1.05;;;;;;;;;;4933928;28;20054;-64
2022/07/15 04:47:31;;;;;;;8.57;1.30;;;;;;;;;;4933161;28;20059;-64
2022/07/15 04:52:44;;;;;;;9.60;1.17;;;;;;;;;;4934032;28;20043;-64
2022/07/15 04:55:09;;;;;;;6.82;1.33;;;;;;;;;;4933392;28;20034;-65
2022/07/15 04:57:35;;;;;;;7.03;1.02;;;;;;;;;;4937285;28;20027;-65
2022/07/15 05:00:00;;;;;;;6.35;1.13;;;;;;;;;;4932350;28;20038;-64
2022/07/15 05:02:26;;;;;;;9.85;1.45;;;;;;;;;;4933095;28;20487;-68
2022/07/15 05:04:51;;;;;;;7.18;1.20;;;;;;;;;;4933483;28;20043;-70
2022/07/15 05:07:16;;;;;;;8.05;1.20;;;;;;;;;;4933665;28;20075;-68
2022/07/15 05:09:44;;;;;;;6.10;1.20;;;;;;;;;;4933577;28;20035;-71
2022/07/15 05:12:09;;;;;;;4.95;1.38;;;;;;;;;;4936983;28;20070;-76
2022/07/15 05:14:40;;;;;;;6.57;1.00;;;;;;;;;;4952253;28;20034;-72
2022/07/15 05:17:07;;;;;;;7.03;1.02;;;;;;;;;;4936568;28;20141;-74
2022/07/15 05:19:33;;;;;;;5.63;0.88;;;;;;;;;;4938570;28;20083;-73
2022/07/15 05:21:58;;;;;;;4.30;0.80;;;;;;;;;;4944804;28;20038;-72
2022/07/15 05:24:23;;;;;;;6.72;0.90;;;;;;;;;;4937272;28;22005;-69
2022/07/15 05:26:49;;;;;;;6.30;1.00;;;;;;;;;;4932020;28;20037;-69
2022/07/15 05:29:14;;;;;;;5.55;0.90;;;;;;;;;;4932413;28;20116;-68
2022/07/15 05:31:39;;;;;;;5.63;1.00;;;;;;;;;;4932744;28;20038;-70
2022/07/15 05:34:05;;;;;;;6.68;1.15;;;;;;;;;;4932526;28;20044;-69
2022/07/15 05:36:30;;;;;;;3.67;0.80;;;;;;;;;;4933205;28;20782;-70
2022/07/15 05:38:58;;;;;;;3.63;0.82;;;;;;;;;;4932229;28;20035;-70
2022/07/15 05:41:26;;;;;;;4.53;0.80;;;;;;;;;;4931375;28;20081;-70
2022/07/15 05:43:52;;;;;;;4.57;0.88;;;;;;;;;;4933271;28;20034;-70
2022/07/15 05:46:22;;;;;;;6.88;0.82;;;;;;;;;;4925463;28;20133;-70
2022/07/15 05:48:47;;;;;;;5.63;0.93;;;;;;;;;;4931496;28;20051;-69
2022/07/15 05:51:12;;;;;;;4.65;1.00;;;;;;;;;;4932754;28;20577;-69
2022/07/15 05:53:38;;;;;;;5.47;0.93;;;;;;;;;;4932874;28;20822;-69
2022/07/15 05:56:06;;;;;;;4.82;0.75;;;;;;;;;;4946796;28;20115;-70
2022/07/15 05:58:31;;;;;;;4.43;0.80;;;;;;;;;;4936322;28;20121;-69
2022/07/15 06:00:56;;;;;;;4.40;0.60;;;;;;;;;;4933330;28;20102;-68
2022/07/15 06:03:22;;;;;;;3.58;0.52;;;;;;;;;;4946457;28;20038;-69
2022/07/15 06:05:49;;;;;;;4.60;0.80;;;;;;;;;;4935641;28;20053;-71
2022/07/15 06:08:15;;;;;;;2.65;0.80;;;;;;;;;;4940385;28;20047;-70
2022/07/15 06:10:41;;;;;;;3.83;0.80;;;;;;;;;;4931396;28;20038;-70
2022/07/15 06:13:09;;;;;;;3.70;0.60;;;;;;;;;;4934109;28;20038;-70
2022/07/15 06:15:37;;;;;;;4.28;0.60;;;;;;;;;;4931629;28;20113;-70
2022/07/15 06:18:02;;;;;;;3.97;0.70;;;;;;;;;;4933104;28;20042;-70
2022/07/15 06:20:28;;;;;;;3.00;0.60;;;;;;;;;;4932653;28;20126;-69
2022/07/15 06:22:53;;;;;;;2.72;0.70;;;;;;;;;;4924183;28;20252;-67
2022/07/15 06:25:18;;;;;;;2.28;0.73;;;;;;;;;;4958255;28;20050;-67
2022/07/15 06:27:43;;;;;;;2.15;0.60;;;;;;;;;;4939928;28;20035;-67
2022/07/15 06:30:09;;;;;;;3.22;0.60;;;;;;;;;;4928119;28;20042;-68
2022/07/15 06:32:35;;;;;;;5.47;0.60;;;;;;;;;;4928488;28;20046;-67
2022/07/15 06:35:01;;;;;;;1.95;0.52;;;;;;;;;;4929674;28;20046;-68
2022/07/15 06:37:29;;;;;;;3.00;0.70;;;;;;;;;;4927464;28;20381;-68
2022/07/15 06:39:56;;;;;;;2.25;0.70;;;;;;;;;;4925163;28;20168;-68
2022/07/15 06:42:24;;;;;;;2.83;0.60;;;;;;;;;;4920337;28;20070;-68
2022/07/15 06:44:52;;;;;;;4.13;0.60;;;;;;;;;;4924337;28;20444;-67
2022/07/15 06:47:17;;;;;;;2.28;0.55;;;;;;;;;;4929293;28;21758;-67
2022/07/15 06:49:43;;;;;;;4.45;0.57;;;;;;;;;;4927752;28;20035;-66
2022/07/15 06:52:08;;;;;;;3.95;0.60;;;;;;;;;;4925514;28;22311;-67
2022/07/15 06:54:34;;;;;;;5.70;0.73;;;;;;;;;;4925717;28;20035;-65
2022/07/15 06:56:59;;;;;;;5.03;0.75;;;;;;;;;;4924756;28;20830;-67
2022/07/15 06:59:25;;;;;;;4.63;0.60;;;;;;;;;;4956251;28;20066;-66
2022/07/15 07:01:53;;;;;;;5.53;0.90;;;;;;;;;;4928370;28;20541;-66
2022/07/15 07:04:19;;;;;;;3.83;0.70;;;;;;;;;;4928240;28;20046;-66
2022/07/15 07:06:44;;;;;;;4.10;0.70;;;;;;;;;;4929081;28;20046;-66
2022/07/15 07:09:12;;;;;;;1.70;0.50;;;;;;;;;;4947590;28;20039;-65
2022/07/15 07:11:39;;;;;;;3.90;0.57;;;;;;;;;;4933321;28;20038;-69
2022/07/15 07:14:04;;;;;;;1.63;0.50;;;;;;;;;;4931838;28;20034;-69
2022/07/15 07:16:30;;;;;;;2.50;0.50;;;;;;;;;;4932782;28;20050;-68
2022/07/15 07:18:56;;;;;;;1.73;0.50;;;;;;;;;;4933978;28;20048;-70
2022/07/15 07:21:21;;;;;;;2.45;0.50;;;;;;;;;;4938488;28;20038;-70
2022/07/15 07:23:47;;;;;;;2.90;0.63;;;;;;;;;;4938098;28;20040;-67
2022/07/15 07:26:14;;;;;;;1.38;0.40;;;;;;;;;;4936394;28;20078;-69
2022/07/15 07:28:40;;;;;;;5.20;0.63;;;;;;;;;;4936468;28;20107;-69
2022/07/15 07:31:08;;;;;;;2.40;0.60;;;;;;;;;;4935117;28;20042;-70
2022/07/15 07:33:34;;;;;;;2.65;0.80;;;;;;;;;;4939238;28;20044;-72
2022/07/15 07:35:59;;;;;;;2.65;0.40;;;;;;;;;;4934671;28;20043;-66
2022/07/15 07:38:24;;;;;;;3.22;0.70;;;;;;;;;;4936224;28;20133;-68
2022/07/15 07:40:50;;;;;;;3.10;0.60;;;;;;;;;;4940129;28;20961;-65
2022/07/15 07:43:17;;;;;;;4.18;0.40;;;;;;;;;;4936020;28;20049;-69
2022/07/15 07:45:45;;;;;;;4.32;0.60;;;;;;;;;;4936943;28;20046;-68
2022/07/15 07:48:13;;;;;;;4.03;0.63;;;;;;;;;;4933753;28;20038;-68
2022/07/15 07:50:40;;;;;;;2.92;0.45;;;;;;;;;;4937755;28;21096;-69
2022/07/15 07:53:06;;;;;;;3.42;0.50;;;;;;;;;;4957404;28;20109;-68
2022/07/15 07:55:31;;;;;;;3.47;0.60;;;;;;;;;;4932854;28;20043;-68
2022/07/15 07:57:57;;;;;;;2.55;0.43;;;;;;;;;;4930235;28;20141;-68
2022/07/15 08:00:23;;;;;;;4.32;0.50;;;;;;;;;;4933249;28;20358;-67
2022/07/15 08:02:51;;;;;;;2.55;0.40;;;;;;;;;;4930814;28;20027;-68
2022/07/15 08:05:16;;;;;;;2.67;0.57;;;;;;;;;;4931861;28;20247;-67
2022/07/15 08:07:44;;;;;;;5.75;0.60;;;;;;;;;;4931319;28;20094;-70
2022/07/15 08:10:10;;;;;;;1.75;0.60;;;;;;;;;;4932838;28;20069;-68
2022/07/15 08:12:37;;;;;;;2.03;0.50;;;;;;;;;;4948264;28;20043;-67
2022/07/15 08:15:03;;;;;;;1.90;0.65;;;;;;;;;;4933747;28;20042;-67
2022/07/15 08:17:29;;;;;;;3.05;0.52;;;;;;;;;;4934580;28;20050;-66
2022/07/15 08:19:54;;;;;;;1.95;0.40;;;;;;;;;;4933802;28;20045;-67
2022/07/15 08:22:20;;;;;;;3.28;0.57;;;;;;;;;;4934044;28;20034;-69
2022/07/15 08:24:45;;;;;;;5.60;0.60;;;;;;;;;;4934958;28;20332;-68
2022/07/15 08:27:10;;;;;;;2.58;0.50;;;;;;;;;;4934796;28;20039;-68
2022/07/15 08:29:35;;;;;;;5.13;0.95;;;;;;;;;;4933668;28;20035;-69
2022/07/15 08:32:01;;;;;;;4.43;0.68;;;;;;;;;;4932753;28;20038;-68
2022/07/15 08:34:26;;;;;;;4.25;0.70;;;;;;;;;;4931779;28;20125;-67
2022/07/15 08:36:54;;;;;;;4.55;0.80;;;;;;;;;;4932110;28;20031;-67
2022/07/15 08:39:22;;;;;;;3.33;0.50;;;;;;;;;;4933254;28;20149;-67
2022/07/15 08:41:47;;;;;;;2.35;0.65;;;;;;;;;;4933188;28;20822;-67
2022/07/15 08:44:12;;;;;;;1.35;0.40;;;;;;;;;;4947999;28;20034;-68
2022/07/15 08:46:40;;;;;;;5.70;0.60;;;;;;;;;;4935866;28;20050;-66
2022/07/15 08:49:08;;;;;;;3.13;0.68;;;;;;;;;;4933546;28;20043;-67
2022/07/15 08:51:37;;;;;;;3.33;0.60;;;;;;;;;;4933783;28;20035;-65
2022/07/15 08:54:02;;;;;;;4.03;0.90;;;;;;;;;;4933692;28;20124;-67
2022/07/15 08:56:27;;;;;;;2.88;0.63;;;;;;;;;;4933615;28;20038;-67
2022/07/15 08:58:53;;;;;;;4.00;0.63;;;;;;;;;;4933520;28;20058;-67
2022/07/15 09:01:20;;;;;;;3.83;0.50;;;;;;;;;;4947455;28;20157;-66
2022/07/15 09:03:45;;;;;;;2.88;0.52;;;;;;;;;;4947449;28;20104;-67
2022/07/15 09:06:29;;;;;;;4.43;0.70;;;;;;;;;;4932360;28;20050;-67
2022/07/15 09:08:56;;;;;;;3.40;0.70;;;;;;;;;;4930316;28;20049;-67
2022/07/15 09:11:29;;;;;;;3.92;0.55;;;;;;;;;;4934114;28;20839;-66
2022/07/15 09:13:54;;;;;;;4.60;0.85;;;;;;;;;;4932367;28;20042;-66
2022/07/15 09:16:20;;;;;;;6.40;0.60;;;;;;;;;;4947678;28;20070;-66
2022/07/15 09:18:48;;;;;;;4.82;0.57;;;;;;;;;;4938025;28;20157;-66
2022/07/15 09:21:17;;;;;;;3.63;0.52;;;;;;;;;;4929077;28;20070;-66
2022/07/15 09:23:42;;;;;;;2.03;0.50;;;;;;;;;;4933555;28;20088;-66
2022/07/15 09:26:26;;;;;;;3.75;0.73;;;;;;;;;;4947193;28;20043;-67
2022/07/15 09:28:54;;;;;;;4.90;0.80;;;;;;;;;;4948237;28;20042;-66
2022/07/15 09:34:13;;;;;;;6.00;0.65;;;;;;;;;;4942955;28;20043;-65
2022/07/15 09:36:40;;;;;;;2.50;0.57;;;;;;;;;;4932452;28;20043;-64
2022/07/15 09:39:07;;;;;;;1.30;0.50;;;;;;;;;;4932918;28;20138;-67
2022/07/15 09:41:33;;;;;;;4.25;0.60;;;;;;;;;;4932274;28;20157;-64
2022/07/15 09:43:59;;;;;;;3.58;0.60;;;;;;;;;;4932804;28;20031;-65
2022/07/15 09:46:26;;;;;;;2.50;0.55;;;;;;;;;;4947569;28;20049;-64
2022/07/15 09:48:52;;;;;;;1.85;0.50;;;;;;;;;;4930112;28;21017;-65
2022/07/15 09:51:18;;;;;;;1.30;0.45;;;;;;;;;;4928759;28;20113;-64
2022/07/15 09:53:43;;;;;;;3.20;0.60;;;;;;;;;;4945664;28;20070;-67
2022/07/15 09:56:12;;;;;;;3.97;0.85;;;;;;;;;;4926745;28;22374;-65
2022/07/15 09:58:39;;;;;;;1.50;0.50;;;;;;;;;;4937490;28;20120;-66
2022/07/15 10:01:05;;;;;;;8.20;0.80;;;;;;;;;;4931341;28;22371;-65
2022/07/15 10:03:32;;;;;;;2.25;0.50;;;;;;;;;;4932082;28;20030;-65
2022/07/15 10:05:59;;;;;;;3.67;0.70;;;;;;;;;;4931054;28;20049;-67
2022/07/15 10:08:24;;;;;;;3.13;0.60;;;;;;;;;;4930878;28;20046;-65
2022/07/15 10:10:51;;;;;;;3.00;0.80;;;;;;;;;;4933007;28;20220;-64
2022/07/15 10:13:29;;;;;;;2.65;0.70;;;;;;;;;;4933132;28;20160;-64
2022/07/15 10:16:19;;;;;;;3.10;0.60;;;;;;;;;;4931230;28;20038;-65
2022/07/15 10:18:48;;;;;;;1.58;0.50;;;;;;;;;;4932237;28;20042;-67
2022/07/15 10:21:31;;;;;;;2.08;0.40;;;;;;;;;;4934397;28;20039;-65
2022/07/15 10:23:57;;;;;;;3.33;0.50;;;;;;;;;;4936243;28;21546;-65
2022/07/15 10:26:22;;;;;;;1.02;0.43;;;;;;;;;;4935909;28;20117;-65
2022/07/15 10:29:04;;;;;;;1.48;0.63;;;;;;;;;;4935301;28;20834;-65
2022/07/15 10:31:30;;;;;;;0.80;0.30;;;;;;;;;;4936651;28;20031;-66
2022/07/15 10:34:02;;;;;;;1.55;0.60;;;;;;;;;;4935442;28;20075;-71
2022/07/15 10:36:46;;;;;;;1.98;0.60;;;;;;;;;;4937891;28;20141;-69
2022/07/15 10:39:11;;;;;;;3.63;0.57;;;;;;;;;;4936999;28;20129;-66
2022/07/15 10:41:58;;;;;;;3.08;0.70;;;;;;;;;;4934119;28;20034;-67
2022/07/15 10:44:28;;;;;;;2.35;0.50;;;;;;;;;;4933261;28;20156;-68
2022/07/15 10:47:14;;;;;;;6.70;0.95;;;;;;;;;;4930488;28;20118;-67
2022/07/15 10:49:49;;;;;;;3.38;0.50;;;;;;;;;;4928798;28;20170;-69
2022/07/15 10:52:21;;;;;;;3.50;0.55;;;;;;;;;;4931680;28;20133;-64
2022/07/15 10:54:55;;;;;;;4.15;0.70;;;;;;;;;;4948738;28;20041;-65
2022/07/15 10:57:44;;;;;;;2.38;0.57;;;;;;;;;;4932925;28;20749;-66
2022/07/15 11:00:20;;;;;;;1.85;0.70;;;;;;;;;;4932108;28;20760;-66
2022/07/15 11:03:01;;;;;;;1.92;0.63;;;;;;;;;;4945451;28;20582;-66
2022/07/15 11:05:28;;;;;;;2.15;0.50;;;;;;;;;;4931024;28;20042;-66
2022/07/15 11:07:54;;;;;;;2.80;0.50;;;;;;;;;;4934879;28;20370;-66
2022/07/15 11:10:20;;;;;;;1.83;0.65;;;;;;;;;;4936348;28;21899;-66
2022/07/15 11:12:59;;;;;;;2.38;0.40;;;;;;;;;;4936454;28;20035;-67
2022/07/15 11:15:24;;;;;;;3.03;0.30;;;;;;;;;;4932759;28;20132;-66
2022/07/15 11:17:51;;;;;;;3.03;0.60;;;;;;;;;;4934978;28;20731;-67
2022/07/15 11:20:17;;;;;;;2.45;0.52;;;;;;;;;;4934061;28;20794;-64
2022/07/15 11:22:50;;;;;;;2.67;0.52;;;;;;;;;;4935930;28;20112;-65
2022/07/15 11:25:34;;;;;;;2.97;0.57;;;;;;;;;;4935312;28;20042;-66
2022/07/15 11:28:03;;;;;;;1.98;0.60;;;;;;;;;;4936801;28;20038;-66
2022/07/15 11:30:33;;;;;;;2.83;0.52;;;;;;;;;;4935157;28;20038;-66
2022/07/15 11:33:04;;;;;;;2.42;0.38;;;;;;;;;;4935355;28;20121;-66
2022/07/15 11:35:30;;;;;;;3.53;0.50;;;;;;;;;;4935085;28;20038;-64
2022/07/15 11:37:58;;;;;;;3.22;0.50;;;;;;;;;;4935828;28;20041;-63
2022/07/15 11:46:00;;;;;;;1.67;0.47;;;;;;;;;;4932653;28;20358;-65
2022/07/15 11:48:25;;;;;;;2.42;0.50;;;;;;;;;;4932918;28;20924;-65
2022/07/15 11:50:54;;;;;;;3.75;0.70;;;;;;;;;;4933005;28;20059;-63
2022/07/15 11:53:20;;;;;;;5.28;0.60;;;;;;;;;;4934962;28;20117;-65
2022/07/15 11:55:55;;;;;;;2.42;0.52;;;;;;;;;;4932126;28;20149;-64
2022/07/15 11:58:24;;;;;;;3.90;0.80;;;;;;;;;;4935216;28;20150;-64
2022/07/15 12:00:50;;;;;;;6.63;0.65;;;;;;;;;;4933711;28;20027;-64
2022/07/15 12:03:15;;;;;;;2.92;0.80;;;;;;;;;;4935774;28;20046;-63
2022/07/15 12:05:41;;;;;;;4.78;1.27;;;;;;;;;;4934456;28;20057;-64
2022/07/15 12:08:06;;;;;;;2.22;0.75;;;;;;;;;;4935157;28;20046;-65
2022/07/15 12:10:35;;;;;;;4.03;0.80;;;;;;;;;;4948320;28;20031;-64
2022/07/15 12:13:01;;;;;;;2.83;1.05;;;;;;;;;;4935293;28;20122;-64
2022/07/15 12:15:28;;;;;;;5.65;1.10;;;;;;;;;;4936799;28;20035;-65
2022/07/15 12:17:53;;;;;;;4.65;0.90;;;;;;;;;;4933315;28;20047;-66
2022/07/15 12:20:19;;;;;;;4.00;1.00;;;;;;;;;;4934895;28;20070;-64
2022/07/15 12:23:06;;;;;;;5.28;1.10;;;;;;;;;;4947915;28;20042;-64
2022/07/15 12:25:31;;;;;;;3.63;1.00;;;;;;;;;;4934592;28;20129;-65
2022/07/15 12:28:00;;;;;;;4.65;1.63;;;;;;;;;;4935567;28;20090;-65
2022/07/15 12:30:36;;;;;;;8.90;1.42;;;;;;;;;;4934295;28;20067;-65
2022/07/15 12:33:14;;;;;;;6.32;1.27;;;;;;;;;;4934375;28;20817;-65
2022/07/15 12:35:39;;;;;;;10.80;1.52;;;;;;;;;;4933776;28;20031;-65
2022/07/15 12:38:04;;;;;;;8.15;1.40;;;;;;;;;;4934531;28;20117;-64
2022/07/15 12:40:30;;;;;;;7.50;1.23;;;;;;;;;;4933420;28;20050;-65
2022/07/15 12:42:55;;;;;;;9.18;1.30;;;;;;;;;;4933856;28;20117;-65
2022/07/15 12:45:23;;;;;;;11.55;1.70;;;;;;;;;;4946987;28;20061;-66
2022/07/15 12:47:58;;;;;;;8.77;1.40;;;;;;;;;;4938161;28;20166;-66
2022/07/15 12:50:23;;;;;;;7.20;1.45;;;;;;;;;;4932293;28;20035;-67
2022/07/15 12:52:51;;;;;;;7.70;1.48;;;;;;;;;;4934985;28;20034;-66
2022/07/15 12:55:19;;;;;;;6.10;1.38;;;;;;;;;;4932505;28;20039;-66
2022/07/15 12:57:44;;;;;;;5.97;1.20;;;;;;;;;;4936393;28;20123;-66
2022/07/15 13:00:14;;;;;;;8.57;1.25;;;;;;;;;;4935443;28;21205;-66
2022/07/15 13:02:58;;;;;;;5.70;1.27;;;;;;;;;;4931127;28;20038;-67
2022/07/15 13:05:27;;;;;;;4.90;1.27;;;;;;;;;;4930197;28;20153;-66
2022/07/15 13:07:52;;;;;;;6.60;1.60;;;;;;;;;;4930077;28;20928;-66
2022/07/15 13:10:18;;;;;;;4.15;1.30;;;;;;;;;;4931288;28;20037;-67
2022/07/15 13:12:43;;;;;;;8.93;1.77;;;;;;;;;;4944783;28;20046;-66
2022/07/15 13:15:09;;;;;;;5.18;1.63;;;;;;;;;;4931669;28;20035;-66
2022/07/15 13:17:35;;;;;;;9.52;1.80;;;;;;;;;;4930721;28;20053;-66
2022/07/15 13:20:00;;;;;;;9.13;2.13;;;;;;;;;;4931222;28;20043;-65
2022/07/15 13:22:25;;;;;;;8.32;1.85;;;;;;;;;;4930433;28;20038;-66
2022/07/15 13:24:51;;;;;;;10.18;1.83;;;;;;;;;;4930257;28;20031;-65
2022/07/15 13:27:16;;;;;;;11.10;2.00;;;;;;;;;;4928527;28;20120;-65
2022/07/15 13:29:42;;;;;;;8.30;1.80;;;;;;;;;;4930717;28;20035;-66
2022/07/15 13:32:07;;;;;;;8.98;1.98;;;;;;;;;;4931029;28;21483;-65
2022/07/15 13:34:33;;;;;;;5.28;1.50;;;;;;;;;;4930377;28;20080;-66
2022/07/15 13:37:00;;;;;;;7.85;1.52;;;;;;;;;;4930086;28;20038;-65
2022/07/15 13:39:26;;;;;;;7.32;1.90;;;;;;;;;;4926908;28;20276;-63
2022/07/15 13:41:51;;;;;;;10.07;2.15;;;;;;;;;;4930071;28;20506;-65
2022/07/15 13:44:16;;;;;;;7.82;1.80;;;;;;;;;;4929719;28;20575;-64
2022/07/15 13:46:42;;;;;;;8.40;1.67;;;;;;;;;;4943116;28;20731;-65
2022/07/15 13:49:10;;;;;;;15.00;1.95;;;;;;;;;;4929187;28;20053;-65
2022/07/15 13:51:36;;;;;;;10.13;1.80;;;;;;;;;;4929457;28;21015;-67
2022/07/15 13:54:01;;;;;;;5.15;1.50;;;;;;;;;;4928182;28;20034;-66
2022/07/15 13:56:27;;;;;;;5.80;1.30;;;;;;;;;;4932961;28;20496;-67
2022/07/15 13:58:57;;;;;;;10.02;1.70;;;;;;;;;;4935366;28;20884;-68
2022/07/15 14:01:23;;;;;;;13.73;2.15;;;;;;;;;;4932087;28;20366;-67
2022/07/15 14:03:51;;;;;;;7.25;1.55;;;;;;;;;;4930963;28;20035;-66
2022/07/15 14:06:17;;;;;;;9.30;1.60;;;;;;;;;;4935787;28;20154;-69
2022/07/15 14:08:42;;;;;;;4.95;1.40;;;;;;;;;;4945950;28;20043;-68
2022/07/15 14:11:07;;;;;;;7.65;1.80;;;;;;;;;;4933347;28;20038;-67
2022/07/15 14:13:33;;;;;;;10.88;1.75;;;;;;;;;;4935545;28;20173;-68
2022/07/15 14:15:58;;;;;;;9.80;1.90;;;;;;;;;;4931318;28;20046;-68
2022/07/15 14:18:42;;;;;;;11.82;1.65;;;;;;;;;;4935507;28;20035;-68
2022/07/15 14:21:08;;;;;;;10.98;2.42;;;;;;;;;;4933267;28;20070;-69
2022/07/15 14:23:35;;;;;;;9.55;2.22;;;;;;;;;;4935209;28;21162;-69
2022/07/15 14:26:01;;;;;;;11.23;2.67;;;;;;;;;;4933952;28;20682;-67
2022/07/15 14:28:29;;;;;;;10.43;2.72;;;;;;;;;;4946511;28;20039;-66
2022/07/15 14:30:54;;;;;;;6.55;2.40;;;;;;;;;;4933244;28;20129;-64
2022/07/15 14:33:20;;;;;;;9.73;2.45;;;;;;;;;;4949998;28;20043;-65
2022/07/15 14:35:45;;;;;;;8.25;2.47;;;;;;;;;;4937520;28;20050;-67
2022/07/15 14:38:11;;;;;;;10.45;2.50;;;;;;;;;;4950406;28;20042;-68
2022/07/15 14:40:36;;;;;;;9.73;2.10;;;;;;;;;;4932771;28;20133;-71
2022/07/15 14:43:02;;;;;;;7.90;2.40;;;;;;;;;;4931925;28;20030;-69
2022/07/15 14:45:27;;;;;;;8.00;2.35;;;;;;;;;;4944409;28;20047;-66
2022/07/15 14:47:52;;;;;;;8.27;2.40;;;;;;;;;;4932635;28;20227;-66
2022/07/15 14:50:18;;;;;;;14.35;2.80;;;;;;;;;;4932570;28;21134;-66
2022/07/15 14:52:43;;;;;;;11.25;2.22;;;;;;;;;;4933399;28;20928;-68